sensor_id;sensor_type;location;lat;lon;timestamp;P1;durP1;ratioP1;P2;durP2;ratioP2
20861;SDS011;10591;52.532;13.348;2023-04-01T00:01:47;3.08;;;2.77;;
20861;SDS011;10591;52.532;13.348;2023-04-01T00:04:19;3.70;;;3.30;;
20861;SDS011;10591;52.532;13.348;2023-04-01T00:06:49;5.30;;;3.00;;
20861;SDS011;10591;52.532;13.348;2023-04-01T00:09:20;4.60;;;3.25;;
20861;SDS011;10591;52.532;13.348;2023-04-01T00:11:54;3.83;;;3.12;;
20861;SDS011;10591;52.532;13.348;2023-04-01T00:14:25;3.37;;;2.90;;
20861;SDS011;10591;52.532;13.348;2023-04-01T00:16:58;4.70;;;3.02;;
20861;SDS011;10591;52.532;13.348;2023-04-01T00:19:31;4.75;;;2.92;;
20861;SDS011;10591;52.532;13.348;2023-04-01T00:22:01;3.90;;;2.90;;
20861;SDS011;10591;52.532;13.348;2023-04-01T00:24:34;3.35;;;3.00;;
20861;SDS011;10591;52.532;13.348;2023-04-01T00:27:04;4.90;;;2.90;;
20861;SDS011;10591;52.532;13.348;2023-04-01T00:29:36;3.83;;;3.08;;
20861;SDS011;10591;52.532;13.348;2023-04-01T00:32:07;2.95;;;2.67;;
20861;SDS011;10591;52.532;13.348;2023-04-01T00:34:38;4.65;;;3.95;;
20861;SDS011;10591;52.532;13.348;2023-04-01T00:37:08;3.25;;;2.92;;
20861;SDS011;10591;52.532;13.348;2023-04-01T00:39:40;4.60;;;2.92;;
20861;SDS011;10591;52.532;13.348;2023-04-01T00:42:14;3.62;;;3.00;;
20861;SDS011;10591;52.532;13.348;2023-04-01T00:44:48;3.35;;;2.70;;
20861;SDS011;10591;52.532;13.348;2023-04-01T00:47:23;4.05;;;2.65;;
20861;SDS011;10591;52.532;13.348;2023-04-01T00:49:56;5.35;;;2.77;;
20861;SDS011;10591;52.532;13.348;2023-04-01T00:52:27;5.03;;;2.98;;
20861;SDS011;10591;52.532;13.348;2023-04-01T00:54:58;3.33;;;2.80;;
20861;SDS011;10591;52.532;13.348;2023-04-01T00:57:32;3.92;;;3.25;;
20861;SDS011;10591;52.532;13.348;2023-04-01T01:00:10;3.05;;;2.67;;
20861;SDS011;10591;52.532;13.348;2023-04-01T01:02:42;5.78;;;2.85;;
20861;SDS011;10591;52.532;13.348;2023-04-01T01:05:14;3.30;;;2.62;;
20861;SDS011;10591;52.532;13.348;2023-04-01T01:10:27;3.75;;;3.00;;
20861;SDS011;10591;52.532;13.348;2023-04-01T01:15:55;4.83;;;2.67;;
20861;SDS011;10591;52.532;13.348;2023-04-01T01:27:07;3.98;;;3.00;;
20861;SDS011;10591;52.532;13.348;2023-04-01T01:29:47;3.83;;;2.77;;
20861;SDS011;10591;52.532;13.348;2023-04-01T01:35:34;2.60;;;2.20;;
20861;SDS011;10591;52.532;13.348;2023-04-01T01:38:10;4.28;;;2.70;;
20861;SDS011;10591;52.532;13.348;2023-04-01T01:40:48;3.85;;;2.85;;
20861;SDS011;10591;52.532;13.348;2023-04-01T01:43:24;3.83;;;2.80;;
20861;SDS011;10591;52.532;13.348;2023-04-01T01:45:57;5.35;;;2.60;;
20861;SDS011;10591;52.532;13.348;2023-04-01T01:48:29;3.95;;;2.95;;
20861;SDS011;10591;52.532;13.348;2023-04-01T01:51:04;3.92;;;3.02;;
20861;SDS011;10591;52.532;13.348;2023-04-01T01:53:35;5.58;;;2.85;;
20861;SDS011;10591;52.532;13.348;2023-04-01T01:56:06;3.65;;;2.92;;
20861;SDS011;10591;52.532;13.348;2023-04-01T01:58:42;5.62;;;3.02;;
20861;SDS011;10591;52.532;13.348;2023-04-01T02:01:12;4.55;;;2.40;;
20861;SDS011;10591;52.532;13.348;2023-04-01T02:03:44;3.72;;;2.52;;
20861;SDS011;10591;52.532;13.348;2023-04-01T02:06:20;3.42;;;2.98;;
20861;SDS011;10591;52.532;13.348;2023-04-01T02:08:56;3.72;;;2.80;;
20861;SDS011;10591;52.532;13.348;2023-04-01T02:11:36;4.75;;;2.72;;
20861;SDS011;10591;52.532;13.348;2023-04-01T02:14:22;3.62;;;2.60;;
20861;SDS011;10591;52.532;13.348;2023-04-01T02:16:59;5.22;;;2.80;;
20861;SDS011;10591;52.532;13.348;2023-04-01T02:19:33;4.33;;;2.90;;
20861;SDS011;10591;52.532;13.348;2023-04-01T02:22:11;3.58;;;2.72;;
20861;SDS011;10591;52.532;13.348;2023-04-01T02:24:46;3.50;;;2.83;;
20861;SDS011;10591;52.532;13.348;2023-04-01T02:27:19;4.97;;;3.60;;
20861;SDS011;10591;52.532;13.348;2023-04-01T02:29:51;5.60;;;3.27;;
20861;SDS011;10591;52.532;13.348;2023-04-01T02:32:23;3.65;;;2.87;;
20861;SDS011;10591;52.532;13.348;2023-04-01T02:34:56;3.60;;;2.70;;
20861;SDS011;10591;52.532;13.348;2023-04-01T02:37:28;5.00;;;3.00;;
20861;SDS011;10591;52.532;13.348;2023-04-01T02:40:02;3.85;;;2.83;;
20861;SDS011;10591;52.532;13.348;2023-04-01T02:42:36;6.50;;;3.02;;
20861;SDS011;10591;52.532;13.348;2023-04-01T02:45:07;6.20;;;3.12;;
20861;SDS011;10591;52.532;13.348;2023-04-01T02:47:39;3.15;;;2.77;;
20861;SDS011;10591;52.532;13.348;2023-04-01T02:50:09;5.25;;;3.12;;
20861;SDS011;10591;52.532;13.348;2023-04-01T02:52:40;3.33;;;2.90;;
20861;SDS011;10591;52.532;13.348;2023-04-01T02:55:10;5.33;;;3.50;;
20861;SDS011;10591;52.532;13.348;2023-04-01T02:57:41;5.55;;;3.58;;
20861;SDS011;10591;52.532;13.348;2023-04-01T03:00:13;4.72;;;3.50;;
20861;SDS011;10591;52.532;13.348;2023-04-01T03:02:45;6.28;;;3.25;;
20861;SDS011;10591;52.532;13.348;2023-04-01T03:05:16;3.40;;;2.65;;
20861;SDS011;10591;52.532;13.348;2023-04-01T03:07:48;2.90;;;2.60;;
20861;SDS011;10591;52.532;13.348;2023-04-01T03:10:19;4.10;;;3.45;;
20861;SDS011;10591;52.532;13.348;2023-04-01T03:12:50;4.25;;;3.45;;
20861;SDS011;10591;52.532;13.348;2023-04-01T03:15:24;5.47;;;2.80;;
20861;SDS011;10591;52.532;13.348;2023-04-01T03:17:55;5.70;;;3.00;;
20861;SDS011;10591;52.532;13.348;2023-04-01T03:20:28;5.42;;;3.25;;
20861;SDS011;10591;52.532;13.348;2023-04-01T03:22:59;5.15;;;3.10;;
20861;SDS011;10591;52.532;13.348;2023-04-01T03:25:31;5.25;;;3.12;;
20861;SDS011;10591;52.532;13.348;2023-04-01T03:28:03;3.35;;;2.90;;
20861;SDS011;10591;52.532;13.348;2023-04-01T03:30:34;3.45;;;2.58;;
20861;SDS011;10591;52.532;13.348;2023-04-01T03:33:06;3.40;;;2.65;;
20861;SDS011;10591;52.532;13.348;2023-04-01T03:35:37;4.58;;;3.00;;
20861;SDS011;10591;52.532;13.348;2023-04-01T03:38:08;4.58;;;2.83;;
20861;SDS011;10591;52.532;13.348;2023-04-01T03:40:41;3.75;;;2.67;;
20861;SDS011;10591;52.532;13.348;2023-04-01T03:43:14;4.83;;;2.70;;
20861;SDS011;10591;52.532;13.348;2023-04-01T03:45:51;5.58;;;3.00;;
20861;SDS011;10591;52.532;13.348;2023-04-01T03:48:18;4.42;;;2.92;;
20861;SDS011;10591;52.532;13.348;2023-04-01T03:50:50;4.58;;;2.62;;
20861;SDS011;10591;52.532;13.348;2023-04-01T03:53:22;3.17;;;2.45;;
20861;SDS011;10591;52.532;13.348;2023-04-01T03:55:53;5.92;;;2.65;;
20861;SDS011;10591;52.532;13.348;2023-04-01T03:58:24;4.78;;;2.62;;
20861;SDS011;10591;52.532;13.348;2023-04-01T04:00:55;4.72;;;2.95;;
20861;SDS011;10591;52.532;13.348;2023-04-01T04:03:26;5.12;;;2.87;;
20861;SDS011;10591;52.532;13.348;2023-04-01T04:05:58;5.25;;;2.83;;
20861;SDS011;10591;52.532;13.348;2023-04-01T04:08:28;5.22;;;2.90;;
20861;SDS011;10591;52.532;13.348;2023-04-01T04:10:59;4.67;;;2.80;;
20861;SDS011;10591;52.532;13.348;2023-04-01T04:13:30;4.35;;;2.90;;
20861;SDS011;10591;52.532;13.348;2023-04-01T04:16:01;5.03;;;3.10;;
20861;SDS011;10591;52.532;13.348;2023-04-01T04:18:33;5.78;;;3.25;;
20861;SDS011;10591;52.532;13.348;2023-04-01T04:21:03;4.97;;;3.75;;
20861;SDS011;10591;52.532;13.348;2023-04-01T04:23:34;4.70;;;3.15;;
20861;SDS011;10591;52.532;13.348;2023-04-01T04:26:07;4.47;;;3.15;;
20861;SDS011;10591;52.532;13.348;2023-04-01T04:28:39;3.87;;;2.85;;
20861;SDS011;10591;52.532;13.348;2023-04-01T04:31:17;4.78;;;3.10;;
20861;SDS011;10591;52.532;13.348;2023-04-01T04:33:54;5.03;;;2.98;;
20861;SDS011;10591;52.532;13.348;2023-04-01T04:36:25;6.12;;;3.15;;
20861;SDS011;10591;52.532;13.348;2023-04-01T04:38:55;3.12;;;2.80;;
20861;SDS011;10591;52.532;13.348;2023-04-01T04:41:30;4.00;;;3.12;;
20861;SDS011;10591;52.532;13.348;2023-04-01T04:44:05;4.95;;;2.85;;
20861;SDS011;10591;52.532;13.348;2023-04-01T04:46:36;4.85;;;3.02;;
20861;SDS011;10591;52.532;13.348;2023-04-01T04:49:08;5.03;;;3.30;;
20861;SDS011;10591;52.532;13.348;2023-04-01T04:51:38;4.05;;;3.12;;
20861;SDS011;10591;52.532;13.348;2023-04-01T04:54:10;5.65;;;3.20;;
20861;SDS011;10591;52.532;13.348;2023-04-01T04:56:41;4.50;;;2.98;;
20861;SDS011;10591;52.532;13.348;2023-04-01T04:59:14;8.85;;;3.33;;
20861;SDS011;10591;52.532;13.348;2023-04-01T05:01:45;5.15;;;3.20;;
20861;SDS011;10591;52.532;13.348;2023-04-01T05:04:16;3.87;;;3.10;;
20861;SDS011;10591;52.532;13.348;2023-04-01T05:06:47;6.20;;;3.67;;
20861;SDS011;10591;52.532;13.348;2023-04-01T05:09:20;4.55;;;3.45;;
20861;SDS011;10591;52.532;13.348;2023-04-01T05:11:52;5.35;;;3.58;;
20861;SDS011;10591;52.532;13.348;2023-04-01T05:14:23;5.50;;;3.50;;
20861;SDS011;10591;52.532;13.348;2023-04-01T05:16:53;5.15;;;3.87;;
20861;SDS011;10591;52.532;13.348;2023-04-01T05:19:23;5.42;;;3.52;;
20861;SDS011;10591;52.532;13.348;2023-04-01T05:21:54;6.05;;;3.58;;
20861;SDS011;10591;52.532;13.348;2023-04-01T05:24:25;5.20;;;3.50;;
20861;SDS011;10591;52.532;13.348;2023-04-01T05:26:55;5.37;;;3.52;;
20861;SDS011;10591;52.532;13.348;2023-04-01T05:29:26;5.12;;;3.55;;
20861;SDS011;10591;52.532;13.348;2023-04-01T05:31:57;5.62;;;3.77;;
20861;SDS011;10591;52.532;13.348;2023-04-01T05:34:27;6.58;;;3.67;;
20861;SDS011;10591;52.532;13.348;2023-04-01T05:36:58;7.33;;;3.80;;
20861;SDS011;10591;52.532;13.348;2023-04-01T05:39:29;5.50;;;3.95;;
20861;SDS011;10591;52.532;13.348;2023-04-01T05:42:00;6.30;;;4.00;;
20861;SDS011;10591;52.532;13.348;2023-04-01T05:44:30;7.40;;;3.60;;
20861;SDS011;10591;52.532;13.348;2023-04-01T05:47:02;7.67;;;4.10;;
20861;SDS011;10591;52.532;13.348;2023-04-01T05:49:33;8.53;;;4.08;;
20861;SDS011;10591;52.532;13.348;2023-04-01T05:52:04;7.28;;;3.83;;
20861;SDS011;10591;52.532;13.348;2023-04-01T05:54:34;6.42;;;4.00;;
20861;SDS011;10591;52.532;13.348;2023-04-01T05:57:05;8.13;;;4.10;;
20861;SDS011;10591;52.532;13.348;2023-04-01T05:59:36;6.78;;;3.70;;
20861;SDS011;10591;52.532;13.348;2023-04-01T06:02:08;7.05;;;3.45;;
20861;SDS011;10591;52.532;13.348;2023-04-01T06:04:39;7.65;;;4.40;;
20861;SDS011;10591;52.532;13.348;2023-04-01T06:07:11;6.97;;;3.95;;
20861;SDS011;10591;52.532;13.348;2023-04-01T06:09:46;5.03;;;4.03;;
20861;SDS011;10591;52.532;13.348;2023-04-01T06:15:14;6.25;;;4.15;;
20861;SDS011;10591;52.532;13.348;2023-04-01T06:23:37;7.78;;;4.33;;
20861;SDS011;10591;52.532;13.348;2023-04-01T06:28:56;6.58;;;4.30;;
20861;SDS011;10591;52.532;13.348;2023-04-01T06:50:48;8.00;;;4.67;;
20861;SDS011;10591;52.532;13.348;2023-04-01T06:56:25;7.20;;;4.42;;
20861;SDS011;10591;52.532;13.348;2023-04-01T06:59:10;8.98;;;4.20;;
20861;SDS011;10591;52.532;13.348;2023-04-01T07:01:45;5.53;;;4.30;;
20861;SDS011;10591;52.532;13.348;2023-04-01T07:04:26;7.67;;;4.03;;
20861;SDS011;10591;52.532;13.348;2023-04-01T07:09:52;7.58;;;4.30;;
20861;SDS011;10591;52.532;13.348;2023-04-01T07:12:33;6.42;;;4.35;;
20861;SDS011;10591;52.532;13.348;2023-04-01T07:15:15;6.33;;;4.87;;
20861;SDS011;10591;52.532;13.348;2023-04-01T07:17:45;7.85;;;4.37;;
20861;SDS011;10591;52.532;13.348;2023-04-01T07:20:35;5.08;;;3.77;;
20861;SDS011;10591;52.532;13.348;2023-04-01T07:23:11;5.55;;;3.30;;
20861;SDS011;10591;52.532;13.348;2023-04-01T07:25:52;4.15;;;3.27;;
20861;SDS011;10591;52.532;13.348;2023-04-01T07:28:22;4.87;;;2.95;;
20861;SDS011;10591;52.532;13.348;2023-04-01T07:36:39;4.12;;;2.72;;
20861;SDS011;10591;52.532;13.348;2023-04-01T07:47:45;7.58;;;3.62;;
20861;SDS011;10591;52.532;13.348;2023-04-01T07:50:31;5.37;;;3.30;;
20861;SDS011;10591;52.532;13.348;2023-04-01T07:53:21;3.87;;;3.47;;
20861;SDS011;10591;52.532;13.348;2023-04-01T07:56:03;5.72;;;4.17;;
20861;SDS011;10591;52.532;13.348;2023-04-01T08:04:27;6.25;;;3.90;;
20861;SDS011;10591;52.532;13.348;2023-04-01T08:07:10;7.10;;;4.75;;
20861;SDS011;10591;52.532;13.348;2023-04-01T08:15:24;4.55;;;3.60;;
20861;SDS011;10591;52.532;13.348;2023-04-01T08:21:01;3.50;;;3.20;;
20861;SDS011;10591;52.532;13.348;2023-04-01T08:23:37;3.50;;;3.20;;
20861;SDS011;10591;52.532;13.348;2023-04-01T08:26:30;2.50;;;2.30;;
20861;SDS011;10591;52.532;13.348;2023-04-01T08:31:48;5.78;;;2.65;;
20861;SDS011;10591;52.532;13.348;2023-04-01T08:34:34;3.80;;;3.35;;
20861;SDS011;10591;52.532;13.348;2023-04-01T08:37:11;4.72;;;3.60;;
20861;SDS011;10591;52.532;13.348;2023-04-01T08:39:43;5.97;;;4.15;;
20861;SDS011;10591;52.532;13.348;2023-04-01T08:42:23;4.12;;;3.72;;
20861;SDS011;10591;52.532;13.348;2023-04-01T08:51:35;4.97;;;4.17;;
20861;SDS011;10591;52.532;13.348;2023-04-01T08:56:50;7.12;;;5.87;;
20861;SDS011;10591;52.532;13.348;2023-04-01T08:59:32;7.55;;;5.97;;
20861;SDS011;10591;52.532;13.348;2023-04-01T09:08:38;9.10;;;7.30;;
20861;SDS011;10591;52.532;13.348;2023-04-01T09:15:37;11.40;;;8.93;;
20861;SDS011;10591;52.532;13.348;2023-04-01T09:18:27;11.93;;;9.35;;
20861;SDS011;10591;52.532;13.348;2023-04-01T09:23:58;10.80;;;9.60;;
20861;SDS011;10591;52.532;13.348;2023-04-01T09:29:33;11.85;;;9.85;;
20861;SDS011;10591;52.532;13.348;2023-04-01T09:34:49;11.60;;;10.15;;
20861;SDS011;10591;52.532;13.348;2023-04-01T09:37:41;11.50;;;9.63;;
20861;SDS011;10591;52.532;13.348;2023-04-01T09:40:21;12.05;;;9.95;;
20861;SDS011;10591;52.532;13.348;2023-04-01T09:43:14;12.18;;;10.58;;
20861;SDS011;10591;52.532;13.348;2023-04-01T09:45:48;11.65;;;10.38;;
20861;SDS011;10591;52.532;13.348;2023-04-01T09:48:39;12.35;;;10.30;;
20861;SDS011;10591;52.532;13.348;2023-04-01T10:00:24;11.57;;;9.68;;
20861;SDS011;10591;52.532;13.348;2023-04-01T10:41:44;14.43;;;12.13;;
20861;SDS011;10591;52.532;13.348;2023-04-01T10:50:24;14.83;;;11.48;;
20861;SDS011;10591;52.532;13.348;2023-04-01T10:59:13;14.47;;;11.65;;
20861;SDS011;10591;52.532;13.348;2023-04-01T11:10:44;14.67;;;11.60;;
20861;SDS011;10591;52.532;13.348;2023-04-01T11:19:19;13.58;;;11.10;;
20861;SDS011;10591;52.532;13.348;2023-04-01T11:25:11;14.28;;;11.25;;
20861;SDS011;10591;52.532;13.348;2023-04-01T11:30:53;16.67;;;12.40;;
20861;SDS011;10591;52.532;13.348;2023-04-01T11:33:34;16.42;;;13.25;;
20861;SDS011;10591;52.532;13.348;2023-04-01T11:47:00;18.95;;;14.18;;
20861;SDS011;10591;52.532;13.348;2023-04-01T11:55:02;19.17;;;14.85;;
20861;SDS011;10591;52.532;13.348;2023-04-01T11:57:35;19.23;;;14.60;;
20861;SDS011;10591;52.532;13.348;2023-04-01T12:00:43;18.87;;;14.23;;
20861;SDS011;10591;52.532;13.348;2023-04-01T12:12:12;20.48;;;15.53;;
20861;SDS011;10591;52.532;13.348;2023-04-01T12:28:54;18.48;;;15.65;;
20861;SDS011;10591;52.532;13.348;2023-04-01T12:31:27;19.95;;;15.32;;
20861;SDS011;10591;52.532;13.348;2023-04-01T12:36:48;20.23;;;15.33;;
20861;SDS011;10591;52.532;13.348;2023-04-01T12:39:27;18.03;;;14.50;;
20861;SDS011;10591;52.532;13.348;2023-04-01T12:42:29;17.37;;;14.40;;
20861;SDS011;10591;52.532;13.348;2023-04-01T12:48:06;17.10;;;14.00;;
20861;SDS011;10591;52.532;13.348;2023-04-01T12:53:44;19.27;;;15.40;;
20861;SDS011;10591;52.532;13.348;2023-04-01T12:56:32;17.98;;;13.65;;
20861;SDS011;10591;52.532;13.348;2023-04-01T13:02:13;22.70;;;16.37;;
20861;SDS011;10591;52.532;13.348;2023-04-01T13:16:36;21.35;;;16.17;;
20861;SDS011;10591;52.532;13.348;2023-04-01T13:19:09;22.00;;;16.43;;
20861;SDS011;10591;52.532;13.348;2023-04-01T13:32:59;21.13;;;15.37;;
20861;SDS011;10591;52.532;13.348;2023-04-01T13:41:25;22.45;;;16.02;;
20861;SDS011;10591;52.532;13.348;2023-04-01T13:46:45;21.33;;;14.97;;
20861;SDS011;10591;52.532;13.348;2023-04-01T13:52:09;17.65;;;13.55;;
20861;SDS011;10591;52.532;13.348;2023-04-01T13:57:22;14.93;;;11.93;;
20861;SDS011;10591;52.532;13.348;2023-04-01T14:05:40;13.75;;;10.75;;
20861;SDS011;10591;52.532;13.348;2023-04-01T14:08:26;13.58;;;11.18;;
20861;SDS011;10591;52.532;13.348;2023-04-01T14:17:01;12.13;;;10.68;;
20861;SDS011;10591;52.532;13.348;2023-04-01T14:19:49;12.30;;;10.88;;
20861;SDS011;10591;52.532;13.348;2023-04-01T14:34:03;8.60;;;7.63;;
20861;SDS011;10591;52.532;13.348;2023-04-01T14:36:53;8.07;;;7.27;;
20861;SDS011;10591;52.532;13.348;2023-04-01T14:42:49;11.00;;;8.27;;
20861;SDS011;10591;52.532;13.348;2023-04-01T14:48:32;9.00;;;7.90;;
20861;SDS011;10591;52.532;13.348;2023-04-01T14:51:23;10.17;;;7.80;;
20861;SDS011;10591;52.532;13.348;2023-04-01T14:59:41;10.13;;;7.87;;
20861;SDS011;10591;52.532;13.348;2023-04-01T15:02:27;8.55;;;7.33;;
20861;SDS011;10591;52.532;13.348;2023-04-01T15:16:13;8.03;;;6.97;;
20861;SDS011;10591;52.532;13.348;2023-04-01T15:24:47;8.67;;;7.30;;
20861;SDS011;10591;52.532;13.348;2023-04-01T15:30:32;8.58;;;7.70;;
20861;SDS011;10591;52.532;13.348;2023-04-01T15:38:48;10.48;;;8.53;;
20861;SDS011;10591;52.532;13.348;2023-04-01T15:41:42;10.60;;;9.18;;
20861;SDS011;10591;52.532;13.348;2023-04-01T15:47:01;10.70;;;9.00;;
20861;SDS011;10591;52.532;13.348;2023-04-01T15:52:19;11.68;;;9.48;;
20861;SDS011;10591;52.532;13.348;2023-04-01T15:55:00;13.20;;;10.50;;
20861;SDS011;10591;52.532;13.348;2023-04-01T16:11:42;8.83;;;7.93;;
20861;SDS011;10591;52.532;13.348;2023-04-01T16:14:23;10.67;;;8.33;;
20861;SDS011;10591;52.532;13.348;2023-04-01T16:19:51;17.55;;;12.75;;
20861;SDS011;10591;52.532;13.348;2023-04-01T16:22:32;9.35;;;8.25;;
20861;SDS011;10591;52.532;13.348;2023-04-01T16:25:31;10.60;;;7.80;;
20861;SDS011;10591;52.532;13.348;2023-04-01T16:28:29;10.87;;;8.37;;
20861;SDS011;10591;52.532;13.348;2023-04-01T16:31:15;7.62;;;6.92;;
20861;SDS011;10591;52.532;13.348;2023-04-01T16:33:54;8.43;;;7.00;;
20861;SDS011;10591;52.532;13.348;2023-04-01T16:47:40;8.03;;;5.60;;
20861;SDS011;10591;52.532;13.348;2023-04-01T16:50:21;5.97;;;5.37;;
20861;SDS011;10591;52.532;13.348;2023-04-01T16:52:57;9.93;;;5.83;;
20861;SDS011;10591;52.532;13.348;2023-04-01T16:55:49;6.23;;;5.63;;
20861;SDS011;10591;52.532;13.348;2023-04-01T16:58:26;6.47;;;5.60;;
20861;SDS011;10591;52.532;13.348;2023-04-01T17:01:04;5.83;;;5.33;;
20861;SDS011;10591;52.532;13.348;2023-04-01T17:03:45;6.33;;;5.57;;
20861;SDS011;10591;52.532;13.348;2023-04-01T17:12:06;6.27;;;5.67;;
20861;SDS011;10591;52.532;13.348;2023-04-01T17:23:33;8.17;;;6.80;;
20861;SDS011;10591;52.532;13.348;2023-04-01T17:29:17;6.97;;;6.07;;
20861;SDS011;10591;52.532;13.348;2023-04-01T17:31:50;8.27;;;6.40;;
20861;SDS011;10591;52.532;13.348;2023-04-01T17:37:40;9.30;;;7.10;;
20861;SDS011;10591;52.532;13.348;2023-04-01T17:48:24;7.23;;;6.50;;
20861;SDS011;10591;52.532;13.348;2023-04-01T17:51:16;8.07;;;6.87;;
20861;SDS011;10591;52.532;13.348;2023-04-01T17:53:56;9.40;;;7.40;;
20861;SDS011;10591;52.532;13.348;2023-04-01T17:59:38;9.50;;;7.00;;
20861;SDS011;10591;52.532;13.348;2023-04-01T18:08:15;7.90;;;6.30;;
20861;SDS011;10591;52.532;13.348;2023-04-01T18:17:11;9.27;;;7.70;;
20861;SDS011;10591;52.532;13.348;2023-04-01T18:19:49;9.37;;;7.50;;
20861;SDS011;10591;52.532;13.348;2023-04-01T18:25:22;10.87;;;7.53;;
20861;SDS011;10591;52.532;13.348;2023-04-01T18:33:49;11.97;;;8.37;;
20861;SDS011;10591;52.532;13.348;2023-04-01T18:39:17;11.20;;;9.10;;
20861;SDS011;10591;52.532;13.348;2023-04-01T18:42:00;10.07;;;8.13;;
20861;SDS011;10591;52.532;13.348;2023-04-01T18:44:42;9.63;;;7.90;;
20861;SDS011;10591;52.532;13.348;2023-04-01T18:47:25;11.37;;;9.30;;
20861;SDS011;10591;52.532;13.348;2023-04-01T18:55:58;10.80;;;8.60;;
20861;SDS011;10591;52.532;13.348;2023-04-01T18:58:49;11.03;;;8.57;;
20861;SDS011;10591;52.532;13.348;2023-04-01T19:01:36;10.63;;;8.57;;
20861;SDS011;10591;52.532;13.348;2023-04-01T19:06:59;11.33;;;8.83;;
20861;SDS011;10591;52.532;13.348;2023-04-01T19:09:33;13.13;;;9.47;;
20861;SDS011;10591;52.532;13.348;2023-04-01T19:15:31;12.80;;;9.30;;
20861;SDS011;10591;52.532;13.348;2023-04-01T19:20:42;12.37;;;8.60;;
20861;SDS011;10591;52.532;13.348;2023-04-01T19:23:39;13.50;;;9.80;;
20861;SDS011;10591;52.532;13.348;2023-04-01T19:29:30;12.80;;;9.83;;
20861;SDS011;10591;52.532;13.348;2023-04-01T19:32:06;15.83;;;10.90;;
20861;SDS011;10591;52.532;13.348;2023-04-01T19:37:30;16.47;;;11.03;;
20861;SDS011;10591;52.532;13.348;2023-04-01T19:40:18;17.50;;;11.23;;
20861;SDS011;10591;52.532;13.348;2023-04-01T19:43:02;15.60;;;11.30;;
20861;SDS011;10591;52.532;13.348;2023-04-01T19:48:16;14.70;;;11.63;;
20861;SDS011;10591;52.532;13.348;2023-04-01T19:50:50;17.27;;;11.53;;
20861;SDS011;10591;52.532;13.348;2023-04-01T19:56:18;18.83;;;12.00;;
20861;SDS011;10591;52.532;13.348;2023-04-01T19:58:56;19.33;;;12.80;;
20861;SDS011;10591;52.532;13.348;2023-04-01T20:09:51;17.97;;;13.87;;
20861;SDS011;10591;52.532;13.348;2023-04-01T20:13:00;17.80;;;13.83;;
20861;SDS011;10591;52.532;13.348;2023-04-01T20:15:37;17.63;;;12.83;;
20861;SDS011;10591;52.532;13.348;2023-04-01T20:18:20;19.57;;;13.53;;
20861;SDS011;10591;52.532;13.348;2023-04-01T20:20:57;16.60;;;12.43;;
20861;SDS011;10591;52.532;13.348;2023-04-01T20:26:37;18.73;;;12.90;;
20861;SDS011;10591;52.532;13.348;2023-04-01T20:29:18;16.10;;;11.87;;
20861;SDS011;10591;52.532;13.348;2023-04-01T20:32:13;19.10;;;13.43;;
20861;SDS011;10591;52.532;13.348;2023-04-01T20:35:08;19.67;;;13.53;;
20861;SDS011;10591;52.532;13.348;2023-04-01T20:37:57;23.20;;;13.73;;
20861;SDS011;10591;52.532;13.348;2023-04-01T20:40:44;21.40;;;14.50;;
20861;SDS011;10591;52.532;13.348;2023-04-01T20:46:19;22.17;;;14.47;;
20861;SDS011;10591;52.532;13.348;2023-04-01T20:49:15;20.90;;;14.40;;
20861;SDS011;10591;52.532;13.348;2023-04-01T20:57:30;21.53;;;15.60;;
20861;SDS011;10591;52.532;13.348;2023-04-01T21:06:01;25.67;;;17.60;;
20861;SDS011;10591;52.532;13.348;2023-04-01T21:17:38;23.67;;;14.47;;
20861;SDS011;10591;52.532;13.348;2023-04-01T21:29:18;19.33;;;13.00;;
20861;SDS011;10591;52.532;13.348;2023-04-01T21:34:42;20.30;;;13.60;;
20861;SDS011;10591;52.532;13.348;2023-04-01T21:37:31;19.67;;;12.97;;
20861;SDS011;10591;52.532;13.348;2023-04-01T21:48:58;19.07;;;12.47;;
20861;SDS011;10591;52.532;13.348;2023-04-01T22:00:18;17.10;;;11.67;;
20861;SDS011;10591;52.532;13.348;2023-04-01T22:03:18;15.73;;;10.63;;
20861;SDS011;10591;52.532;13.348;2023-04-01T22:05:50;13.57;;;11.20;;
20861;SDS011;10591;52.532;13.348;2023-04-01T22:08:40;15.43;;;10.63;;
20861;SDS011;10591;52.532;13.348;2023-04-01T22:11:17;16.83;;;10.87;;
20861;SDS011;10591;52.532;13.348;2023-04-01T22:14:06;16.43;;;11.37;;
20861;SDS011;10591;52.532;13.348;2023-04-01T22:16:44;14.20;;;9.93;;
20861;SDS011;10591;52.532;13.348;2023-04-01T22:19:39;12.67;;;9.10;;
20861;SDS011;10591;52.532;13.348;2023-04-01T22:22:17;10.33;;;8.37;;
20861;SDS011;10591;52.532;13.348;2023-04-01T22:27:56;9.07;;;7.13;;
20861;SDS011;10591;52.532;13.348;2023-04-01T22:30:30;8.73;;;7.70;;
20861;SDS011;10591;52.532;13.348;2023-04-01T22:33:11;7.67;;;6.90;;
20861;SDS011;10591;52.532;13.348;2023-04-01T22:38:28;7.63;;;5.60;;
20861;SDS011;10591;52.532;13.348;2023-04-01T22:44:03;6.83;;;5.63;;
20861;SDS011;10591;52.532;13.348;2023-04-01T22:46:49;8.97;;;6.90;;
20861;SDS011;10591;52.532;13.348;2023-04-01T22:49:32;10.67;;;7.10;;
20861;SDS011;10591;52.532;13.348;2023-04-01T22:52:05;7.27;;;6.47;;
20861;SDS011;10591;52.532;13.348;2023-04-01T22:54:50;7.93;;;6.97;;
20861;SDS011;10591;52.532;13.348;2023-04-01T22:57:35;9.93;;;7.50;;
20861;SDS011;10591;52.532;13.348;2023-04-01T23:00:14;8.40;;;7.60;;
20861;SDS011;10591;52.532;13.348;2023-04-01T23:05:46;8.43;;;7.63;;
20861;SDS011;10591;52.532;13.348;2023-04-01T23:11:19;8.77;;;7.90;;
20861;SDS011;10591;52.532;13.348;2023-04-01T23:16:54;8.57;;;7.77;;
20861;SDS011;10591;52.532;13.348;2023-04-01T23:19:41;8.33;;;7.53;;
20861;SDS011;10591;52.532;13.348;2023-04-01T23:25:53;7.70;;;6.83;;
20861;SDS011;10591;52.532;13.348;2023-04-01T23:27:56;7.90;;;6.50;;
20861;SDS011;10591;52.532;13.348;2023-04-01T23:33:25;7.97;;;6.57;;
20861;SDS011;10591;52.532;13.348;2023-04-01T23:38:35;7.57;;;6.70;;
20861;SDS011;10591;52.532;13.348;2023-04-01T23:41:17;9.03;;;6.73;;
20861;SDS011;10591;52.532;13.348;2023-04-01T23:43:44;7.20;;;6.07;;
20861;SDS011;10591;52.532;13.348;2023-04-01T23:46:18;9.50;;;6.23;;
20861;SDS011;10591;52.532;13.348;2023-04-01T23:48:49;6.93;;;5.87;;
20861;SDS011;10591;52.532;13.348;2023-04-01T23:51:36;8.30;;;6.43;;
20861;SDS011;10591;52.532;13.348;2023-04-01T23:54:09;7.13;;;6.43;;
20861;SDS011;10591;52.532;13.348;2023-04-01T23:56:54;6.90;;;5.63;;
20861;SDS011;10591;52.532;13.348;2023-04-01T23:59:29;7.23;;;5.80;;
